sensor_id;sensor_type;location;lat;lon;timestamp;P1;durP1;ratioP1;P2;durP2;ratioP2
71503;SDS011;59323;50.874;7.028;2023-05-07T00:01:03;6.70;;;2.93;;
71503;SDS011;59323;50.874;7.028;2023-05-07T00:03:30;5.90;;;2.45;;
71503;SDS011;59323;50.874;7.028;2023-05-07T00:05:56;8.07;;;3.27;;
71503;SDS011;59323;50.874;7.028;2023-05-07T00:08:21;6.97;;;3.70;;
71503;SDS011;59323;50.874;7.028;2023-05-07T00:10:47;7.05;;;3.83;;
71503;SDS011;59323;50.874;7.028;2023-05-07T00:13:13;7.87;;;3.80;;
71503;SDS011;59323;50.874;7.028;2023-05-07T00:15:38;6.97;;;2.93;;
71503;SDS011;59323;50.874;7.028;2023-05-07T00:18:04;7.20;;;3.20;;
71503;SDS011;59323;50.874;7.028;2023-05-07T00:20:29;8.40;;;3.23;;
71503;SDS011;59323;50.874;7.028;2023-05-07T00:22:55;5.85;;;2.95;;
71503;SDS011;59323;50.874;7.028;2023-05-07T00:25:20;6.60;;;2.87;;
71503;SDS011;59323;50.874;7.028;2023-05-07T00:27:46;5.07;;;2.20;;
71503;SDS011;59323;50.874;7.028;2023-05-07T00:30:11;8.15;;;2.78;;
71503;SDS011;59323;50.874;7.028;2023-05-07T00:32:37;5.50;;;2.50;;
71503;SDS011;59323;50.874;7.028;2023-05-07T00:35:03;6.43;;;2.70;;
71503;SDS011;59323;50.874;7.028;2023-05-07T00:37:29;5.75;;;2.60;;
71503;SDS011;59323;50.874;7.028;2023-05-07T00:39:55;6.17;;;3.40;;
71503;SDS011;59323;50.874;7.028;2023-05-07T00:42:20;6.57;;;2.70;;
71503;SDS011;59323;50.874;7.028;2023-05-07T00:44:46;6.13;;;2.22;;
71503;SDS011;59323;50.874;7.028;2023-05-07T00:47:11;6.00;;;2.80;;
71503;SDS011;59323;50.874;7.028;2023-05-07T00:49:38;6.97;;;2.90;;
71503;SDS011;59323;50.874;7.028;2023-05-07T00:52:06;5.22;;;2.53;;
71503;SDS011;59323;50.874;7.028;2023-05-07T00:54:34;5.40;;;2.93;;
71503;SDS011;59323;50.874;7.028;2023-05-07T00:57:00;5.53;;;3.00;;
71503;SDS011;59323;50.874;7.028;2023-05-07T00:59:27;6.03;;;2.90;;
71503;SDS011;59323;50.874;7.028;2023-05-07T01:01:52;5.90;;;2.90;;
71503;SDS011;59323;50.874;7.028;2023-05-07T01:04:18;6.33;;;2.77;;
71503;SDS011;59323;50.874;7.028;2023-05-07T01:06:44;8.23;;;3.13;;
71503;SDS011;59323;50.874;7.028;2023-05-07T01:09:10;6.80;;;2.90;;
71503;SDS011;59323;50.874;7.028;2023-05-07T01:11:36;4.87;;;2.33;;
71503;SDS011;59323;50.874;7.028;2023-05-07T01:14:03;7.63;;;2.88;;
71503;SDS011;59323;50.874;7.028;2023-05-07T01:16:29;6.22;;;2.90;;
71503;SDS011;59323;50.874;7.028;2023-05-07T01:18:54;8.70;;;3.13;;
71503;SDS011;59323;50.874;7.028;2023-05-07T01:21:20;5.82;;;2.90;;
71503;SDS011;59323;50.874;7.028;2023-05-07T01:23:51;6.30;;;2.50;;
71503;SDS011;59323;50.874;7.028;2023-05-07T01:26:20;5.67;;;2.47;;
71503;SDS011;59323;50.874;7.028;2023-05-07T01:28:47;7.18;;;2.30;;
71503;SDS011;59323;50.874;7.028;2023-05-07T01:31:12;5.73;;;2.60;;
71503;SDS011;59323;50.874;7.028;2023-05-07T01:33:39;6.88;;;2.90;;
71503;SDS011;59323;50.874;7.028;2023-05-07T01:36:06;5.95;;;2.63;;
71503;SDS011;59323;50.874;7.028;2023-05-07T01:38:34;7.40;;;2.42;;
71503;SDS011;59323;50.874;7.028;2023-05-07T01:41:01;6.15;;;2.53;;
71503;SDS011;59323;50.874;7.028;2023-05-07T01:43:27;4.83;;;2.50;;
71503;SDS011;59323;50.874;7.028;2023-05-07T01:45:54;6.50;;;2.45;;
71503;SDS011;59323;50.874;7.028;2023-05-07T01:48:20;4.60;;;2.20;;
71503;SDS011;59323;50.874;7.028;2023-05-07T01:50:46;5.30;;;2.10;;
71503;SDS011;59323;50.874;7.028;2023-05-07T01:53:12;5.82;;;2.40;;
71503;SDS011;59323;50.874;7.028;2023-05-07T01:55:38;5.33;;;2.30;;
71503;SDS011;59323;50.874;7.028;2023-05-07T01:58:04;4.03;;;1.92;;
71503;SDS011;59323;50.874;7.028;2023-05-07T02:00:30;7.43;;;2.25;;
71503;SDS011;59323;50.874;7.028;2023-05-07T02:02:56;5.90;;;2.20;;
71503;SDS011;59323;50.874;7.028;2023-05-07T02:05:24;4.97;;;2.05;;
71503;SDS011;59323;50.874;7.028;2023-05-07T02:07:49;5.03;;;2.40;;
71503;SDS011;59323;50.874;7.028;2023-05-07T02:10:15;5.97;;;2.28;;
71503;SDS011;59323;50.874;7.028;2023-05-07T02:12:40;5.20;;;2.00;;
71503;SDS011;59323;50.874;7.028;2023-05-07T02:15:06;6.43;;;1.97;;
71503;SDS011;59323;50.874;7.028;2023-05-07T02:17:32;5.80;;;2.40;;
71503;SDS011;59323;50.874;7.028;2023-05-07T02:19:58;5.60;;;1.93;;
71503;SDS011;59323;50.874;7.028;2023-05-07T02:22:23;4.27;;;2.00;;
71503;SDS011;59323;50.874;7.028;2023-05-07T02:24:49;6.07;;;2.10;;
71503;SDS011;59323;50.874;7.028;2023-05-07T02:27:14;5.30;;;2.10;;
71503;SDS011;59323;50.874;7.028;2023-05-07T02:29:40;5.13;;;2.67;;
71503;SDS011;59323;50.874;7.028;2023-05-07T02:32:05;4.63;;;2.17;;
71503;SDS011;59323;50.874;7.028;2023-05-07T02:34:31;4.97;;;2.00;;
71503;SDS011;59323;50.874;7.028;2023-05-07T02:36:56;4.47;;;2.27;;
71503;SDS011;59323;50.874;7.028;2023-05-07T02:39:22;4.40;;;1.80;;
71503;SDS011;59323;50.874;7.028;2023-05-07T02:41:47;5.65;;;2.40;;
71503;SDS011;59323;50.874;7.028;2023-05-07T02:44:13;4.60;;;2.03;;
71503;SDS011;59323;50.874;7.028;2023-05-07T02:46:38;5.47;;;2.03;;
71503;SDS011;59323;50.874;7.028;2023-05-07T02:49:03;4.57;;;2.20;;
71503;SDS011;59323;50.874;7.028;2023-05-07T02:51:29;5.82;;;2.33;;
71503;SDS011;59323;50.874;7.028;2023-05-07T02:53:55;5.77;;;2.17;;
71503;SDS011;59323;50.874;7.028;2023-05-07T02:56:21;4.35;;;2.00;;
71503;SDS011;59323;50.874;7.028;2023-05-07T02:58:46;5.27;;;2.00;;
71503;SDS011;59323;50.874;7.028;2023-05-07T03:01:12;8.13;;;2.50;;
71503;SDS011;59323;50.874;7.028;2023-05-07T03:03:38;5.10;;;2.57;;
71503;SDS011;59323;50.874;7.028;2023-05-07T03:06:04;5.53;;;2.20;;
71503;SDS011;59323;50.874;7.028;2023-05-07T03:08:36;6.25;;;2.40;;
71503;SDS011;59323;50.874;7.028;2023-05-07T03:11:02;5.20;;;2.10;;
71503;SDS011;59323;50.874;7.028;2023-05-07T03:13:27;5.23;;;2.37;;
71503;SDS011;59323;50.874;7.028;2023-05-07T03:15:53;6.47;;;2.20;;
71503;SDS011;59323;50.874;7.028;2023-05-07T03:18:18;3.73;;;1.70;;
71503;SDS011;59323;50.874;7.028;2023-05-07T03:20:43;4.95;;;2.38;;
71503;SDS011;59323;50.874;7.028;2023-05-07T03:23:09;5.33;;;2.13;;
71503;SDS011;59323;50.874;7.028;2023-05-07T03:25:34;4.43;;;1.87;;
71503;SDS011;59323;50.874;7.028;2023-05-07T03:28:00;5.15;;;2.20;;
71503;SDS011;59323;50.874;7.028;2023-05-07T03:30:25;3.87;;;1.67;;
71503;SDS011;59323;50.874;7.028;2023-05-07T03:32:50;5.63;;;2.33;;
71503;SDS011;59323;50.874;7.028;2023-05-07T03:35:16;5.10;;;2.13;;
71503;SDS011;59323;50.874;7.028;2023-05-07T03:37:41;5.33;;;1.77;;
71503;SDS011;59323;50.874;7.028;2023-05-07T03:40:07;4.53;;;2.20;;
71503;SDS011;59323;50.874;7.028;2023-05-07T03:42:35;5.10;;;2.13;;
71503;SDS011;59323;50.874;7.028;2023-05-07T03:45:00;4.13;;;1.70;;
71503;SDS011;59323;50.874;7.028;2023-05-07T03:47:25;4.90;;;2.03;;
71503;SDS011;59323;50.874;7.028;2023-05-07T03:49:51;4.27;;;1.83;;
71503;SDS011;59323;50.874;7.028;2023-05-07T03:52:17;4.53;;;2.20;;
71503;SDS011;59323;50.874;7.028;2023-05-07T03:54:47;4.07;;;1.90;;
71503;SDS011;59323;50.874;7.028;2023-05-07T03:57:13;4.68;;;2.45;;
71503;SDS011;59323;50.874;7.028;2023-05-07T03:59:38;4.67;;;1.87;;
71503;SDS011;59323;50.874;7.028;2023-05-07T04:02:04;4.53;;;1.90;;
71503;SDS011;59323;50.874;7.028;2023-05-07T04:04:29;4.73;;;2.07;;
71503;SDS011;59323;50.874;7.028;2023-05-07T04:06:57;5.73;;;1.80;;
71503;SDS011;59323;50.874;7.028;2023-05-07T04:09:24;5.60;;;2.10;;
71503;SDS011;59323;50.874;7.028;2023-05-07T04:11:50;5.72;;;2.10;;
71503;SDS011;59323;50.874;7.028;2023-05-07T04:14:15;5.27;;;2.40;;
71503;SDS011;59323;50.874;7.028;2023-05-07T04:16:41;5.47;;;2.23;;
71503;SDS011;59323;50.874;7.028;2023-05-07T04:19:06;4.40;;;2.10;;
71503;SDS011;59323;50.874;7.028;2023-05-07T04:21:31;6.43;;;2.07;;
71503;SDS011;59323;50.874;7.028;2023-05-07T04:23:57;5.43;;;2.10;;
71503;SDS011;59323;50.874;7.028;2023-05-07T04:26:22;4.87;;;1.90;;
71503;SDS011;59323;50.874;7.028;2023-05-07T04:28:48;4.63;;;2.10;;
71503;SDS011;59323;50.874;7.028;2023-05-07T04:31:13;7.07;;;2.33;;
71503;SDS011;59323;50.874;7.028;2023-05-07T04:33:38;7.33;;;2.00;;
71503;SDS011;59323;50.874;7.028;2023-05-07T04:36:04;5.97;;;2.40;;
71503;SDS011;59323;50.874;7.028;2023-05-07T04:38:30;6.53;;;2.50;;
71503;SDS011;59323;50.874;7.028;2023-05-07T04:40:56;5.90;;;2.30;;
71503;SDS011;59323;50.874;7.028;2023-05-07T04:43:22;5.40;;;2.70;;
71503;SDS011;59323;50.874;7.028;2023-05-07T04:45:49;4.53;;;2.23;;
71503;SDS011;59323;50.874;7.028;2023-05-07T04:48:15;5.75;;;2.53;;
71503;SDS011;59323;50.874;7.028;2023-05-07T04:50:41;4.57;;;2.10;;
71503;SDS011;59323;50.874;7.028;2023-05-07T04:53:06;6.10;;;2.40;;
71503;SDS011;59323;50.874;7.028;2023-05-07T04:55:32;6.27;;;2.17;;
71503;SDS011;59323;50.874;7.028;2023-05-07T04:57:57;5.77;;;2.23;;
71503;SDS011;59323;50.874;7.028;2023-05-07T05:00:22;3.87;;;1.70;;
71503;SDS011;59323;50.874;7.028;2023-05-07T05:02:48;5.00;;;2.00;;
71503;SDS011;59323;50.874;7.028;2023-05-07T05:05:13;4.93;;;2.30;;
71503;SDS011;59323;50.874;7.028;2023-05-07T05:07:38;5.33;;;2.30;;
71503;SDS011;59323;50.874;7.028;2023-05-07T05:10:04;4.73;;;2.00;;
71503;SDS011;59323;50.874;7.028;2023-05-07T05:12:30;5.25;;;2.28;;
71503;SDS011;59323;50.874;7.028;2023-05-07T05:14:56;5.47;;;2.00;;
71503;SDS011;59323;50.874;7.028;2023-05-07T05:17:21;8.13;;;2.33;;
71503;SDS011;59323;50.874;7.028;2023-05-07T05:19:46;4.53;;;1.80;;
71503;SDS011;59323;50.874;7.028;2023-05-07T05:22:12;4.20;;;1.90;;
71503;SDS011;59323;50.874;7.028;2023-05-07T05:24:37;4.40;;;1.63;;
71503;SDS011;59323;50.874;7.028;2023-05-07T05:27:02;4.83;;;2.03;;
71503;SDS011;59323;50.874;7.028;2023-05-07T05:29:28;4.13;;;1.98;;
71503;SDS011;59323;50.874;7.028;2023-05-07T05:31:53;5.60;;;2.20;;
71503;SDS011;59323;50.874;7.028;2023-05-07T05:34:19;4.27;;;1.93;;
71503;SDS011;59323;50.874;7.028;2023-05-07T05:36:47;4.78;;;1.80;;
71503;SDS011;59323;50.874;7.028;2023-05-07T05:39:12;6.77;;;2.10;;
71503;SDS011;59323;50.874;7.028;2023-05-07T05:41:38;4.67;;;1.70;;
71503;SDS011;59323;50.874;7.028;2023-05-07T05:44:03;6.40;;;1.90;;
71503;SDS011;59323;50.874;7.028;2023-05-07T05:46:29;4.13;;;1.77;;
71503;SDS011;59323;50.874;7.028;2023-05-07T05:48:55;4.63;;;1.70;;
71503;SDS011;59323;50.874;7.028;2023-05-07T05:51:20;4.50;;;1.73;;
71503;SDS011;59323;50.874;7.028;2023-05-07T05:53:46;4.80;;;2.00;;
71503;SDS011;59323;50.874;7.028;2023-05-07T05:56:12;6.53;;;1.73;;
71503;SDS011;59323;50.874;7.028;2023-05-07T05:58:37;4.68;;;1.92;;
71503;SDS011;59323;50.874;7.028;2023-05-07T06:01:03;5.97;;;2.00;;
71503;SDS011;59323;50.874;7.028;2023-05-07T06:03:28;4.25;;;1.48;;
71503;SDS011;59323;50.874;7.028;2023-05-07T06:05:54;3.93;;;1.70;;
71503;SDS011;59323;50.874;7.028;2023-05-07T06:08:19;3.40;;;1.80;;
71503;SDS011;59323;50.874;7.028;2023-05-07T06:10:44;9.50;;;2.10;;
71503;SDS011;59323;50.874;7.028;2023-05-07T06:13:10;5.17;;;2.20;;
71503;SDS011;59323;50.874;7.028;2023-05-07T06:15:35;4.57;;;1.77;;
71503;SDS011;59323;50.874;7.028;2023-05-07T06:18:01;3.87;;;1.53;;
71503;SDS011;59323;50.874;7.028;2023-05-07T06:20:26;3.50;;;1.60;;
71503;SDS011;59323;50.874;7.028;2023-05-07T06:22:51;5.07;;;1.90;;
71503;SDS011;59323;50.874;7.028;2023-05-07T06:25:17;6.53;;;1.80;;
71503;SDS011;59323;50.874;7.028;2023-05-07T06:27:42;5.63;;;1.70;;
71503;SDS011;59323;50.874;7.028;2023-05-07T06:30:07;4.77;;;1.67;;
71503;SDS011;59323;50.874;7.028;2023-05-07T06:32:33;4.30;;;1.93;;
71503;SDS011;59323;50.874;7.028;2023-05-07T06:34:58;5.27;;;1.97;;
71503;SDS011;59323;50.874;7.028;2023-05-07T06:37:24;5.40;;;2.00;;
71503;SDS011;59323;50.874;7.028;2023-05-07T06:39:49;6.40;;;1.90;;
71503;SDS011;59323;50.874;7.028;2023-05-07T06:42:15;4.23;;;1.60;;
71503;SDS011;59323;50.874;7.028;2023-05-07T06:44:40;4.63;;;2.00;;
71503;SDS011;59323;50.874;7.028;2023-05-07T06:47:05;3.95;;;1.33;;
71503;SDS011;59323;50.874;7.028;2023-05-07T06:49:31;4.20;;;1.60;;
71503;SDS011;59323;50.874;7.028;2023-05-07T06:51:58;4.32;;;1.70;;
71503;SDS011;59323;50.874;7.028;2023-05-07T06:54:23;4.30;;;1.60;;
71503;SDS011;59323;50.874;7.028;2023-05-07T06:56:49;4.70;;;1.60;;
71503;SDS011;59323;50.874;7.028;2023-05-07T06:59:14;4.22;;;1.60;;
71503;SDS011;59323;50.874;7.028;2023-05-07T07:01:40;3.60;;;1.53;;
71503;SDS011;59323;50.874;7.028;2023-05-07T07:04:06;4.80;;;1.63;;
71503;SDS011;59323;50.874;7.028;2023-05-07T07:06:31;5.47;;;1.90;;
71503;SDS011;59323;50.874;7.028;2023-05-07T07:08:57;4.07;;;1.70;;
71503;SDS011;59323;50.874;7.028;2023-05-07T07:11:23;5.22;;;1.52;;
71503;SDS011;59323;50.874;7.028;2023-05-07T07:13:48;3.73;;;1.57;;
71503;SDS011;59323;50.874;7.028;2023-05-07T07:16:14;3.13;;;1.47;;
71503;SDS011;59323;50.874;7.028;2023-05-07T07:18:39;4.35;;;2.00;;
71503;SDS011;59323;50.874;7.028;2023-05-07T07:21:05;5.03;;;1.70;;
71503;SDS011;59323;50.874;7.028;2023-05-07T07:23:30;5.20;;;1.80;;
71503;SDS011;59323;50.874;7.028;2023-05-07T07:25:55;3.63;;;1.50;;
71503;SDS011;59323;50.874;7.028;2023-05-07T07:28:21;3.43;;;1.40;;
71503;SDS011;59323;50.874;7.028;2023-05-07T07:30:47;5.57;;;1.50;;
71503;SDS011;59323;50.874;7.028;2023-05-07T07:33:12;4.40;;;1.73;;
71503;SDS011;59323;50.874;7.028;2023-05-07T07:35:37;3.90;;;1.73;;
71503;SDS011;59323;50.874;7.028;2023-05-07T07:38:03;4.33;;;1.87;;
71503;SDS011;59323;50.874;7.028;2023-05-07T07:40:28;4.03;;;1.80;;
71503;SDS011;59323;50.874;7.028;2023-05-07T07:42:54;3.38;;;1.52;;
71503;SDS011;59323;50.874;7.028;2023-05-07T07:45:20;3.90;;;1.67;;
71503;SDS011;59323;50.874;7.028;2023-05-07T07:47:45;4.30;;;1.50;;
71503;SDS011;59323;50.874;7.028;2023-05-07T07:50:11;3.73;;;1.70;;
71503;SDS011;59323;50.874;7.028;2023-05-07T07:52:36;5.47;;;1.50;;
71503;SDS011;59323;50.874;7.028;2023-05-07T07:55:02;3.20;;;1.40;;
71503;SDS011;59323;50.874;7.028;2023-05-07T07:57:28;4.00;;;1.70;;
71503;SDS011;59323;50.874;7.028;2023-05-07T07:59:53;2.93;;;1.50;;
71503;SDS011;59323;50.874;7.028;2023-05-07T08:02:19;4.13;;;1.70;;
71503;SDS011;59323;50.874;7.028;2023-05-07T08:04:44;5.47;;;1.90;;
71503;SDS011;59323;50.874;7.028;2023-05-07T08:07:10;4.07;;;1.90;;
71503;SDS011;59323;50.874;7.028;2023-05-07T08:09:36;3.93;;;1.90;;
71503;SDS011;59323;50.874;7.028;2023-05-07T08:12:02;4.78;;;2.05;;
71503;SDS011;59323;50.874;7.028;2023-05-07T08:14:28;5.65;;;1.90;;
71503;SDS011;59323;50.874;7.028;2023-05-07T08:16:53;3.43;;;1.60;;
71503;SDS011;59323;50.874;7.028;2023-05-07T08:19:19;7.00;;;1.98;;
71503;SDS011;59323;50.874;7.028;2023-05-07T08:21:45;3.80;;;1.80;;
71503;SDS011;59323;50.874;7.028;2023-05-07T08:24:12;4.30;;;1.75;;
71503;SDS011;59323;50.874;7.028;2023-05-07T08:26:38;6.30;;;2.40;;
71503;SDS011;59323;50.874;7.028;2023-05-07T08:29:04;6.10;;;1.58;;
71503;SDS011;59323;50.874;7.028;2023-05-07T08:31:29;6.05;;;1.60;;
71503;SDS011;59323;50.874;7.028;2023-05-07T08:33:55;3.70;;;1.50;;
71503;SDS011;59323;50.874;7.028;2023-05-07T08:36:21;5.88;;;2.10;;
71503;SDS011;59323;50.874;7.028;2023-05-07T08:38:46;4.67;;;1.77;;
71503;SDS011;59323;50.874;7.028;2023-05-07T08:41:11;5.23;;;2.00;;
71503;SDS011;59323;50.874;7.028;2023-05-07T08:43:37;3.90;;;1.90;;
71503;SDS011;59323;50.874;7.028;2023-05-07T08:46:05;5.85;;;2.00;;
71503;SDS011;59323;50.874;7.028;2023-05-07T08:48:33;5.85;;;2.20;;
71503;SDS011;59323;50.874;7.028;2023-05-07T08:51:00;4.88;;;1.77;;
71503;SDS011;59323;50.874;7.028;2023-05-07T08:53:25;3.87;;;1.50;;
71503;SDS011;59323;50.874;7.028;2023-05-07T08:55:51;5.10;;;1.92;;
71503;SDS011;59323;50.874;7.028;2023-05-07T08:58:17;6.33;;;3.27;;
71503;SDS011;59323;50.874;7.028;2023-05-07T09:00:43;3.50;;;1.95;;
71503;SDS011;59323;50.874;7.028;2023-05-07T09:03:08;6.20;;;2.23;;
71503;SDS011;59323;50.874;7.028;2023-05-07T09:05:37;4.38;;;1.73;;
71503;SDS011;59323;50.874;7.028;2023-05-07T09:08:06;4.03;;;1.70;;
71503;SDS011;59323;50.874;7.028;2023-05-07T09:10:33;4.25;;;1.63;;
71503;SDS011;59323;50.874;7.028;2023-05-07T09:12:59;3.33;;;1.70;;
71503;SDS011;59323;50.874;7.028;2023-05-07T09:15:25;3.47;;;1.67;;
71503;SDS011;59323;50.874;7.028;2023-05-07T09:17:51;4.45;;;1.60;;
71503;SDS011;59323;50.874;7.028;2023-05-07T09:20:16;3.30;;;1.93;;
71503;SDS011;59323;50.874;7.028;2023-05-07T09:22:42;3.78;;;1.60;;
71503;SDS011;59323;50.874;7.028;2023-05-07T09:25:09;4.80;;;2.23;;
71503;SDS011;59323;50.874;7.028;2023-05-07T09:27:35;5.03;;;1.90;;
71503;SDS011;59323;50.874;7.028;2023-05-07T09:30:05;4.35;;;1.67;;
71503;SDS011;59323;50.874;7.028;2023-05-07T09:32:34;4.63;;;1.53;;
71503;SDS011;59323;50.874;7.028;2023-05-07T09:35:00;6.05;;;2.10;;
71503;SDS011;59323;50.874;7.028;2023-05-07T09:37:25;4.00;;;1.70;;
71503;SDS011;59323;50.874;7.028;2023-05-07T09:39:50;3.92;;;1.98;;
71503;SDS011;59323;50.874;7.028;2023-05-07T09:42:16;4.00;;;1.60;;
71503;SDS011;59323;50.874;7.028;2023-05-07T09:44:48;4.85;;;1.95;;
71503;SDS011;59323;50.874;7.028;2023-05-07T09:47:16;5.83;;;1.67;;
71503;SDS011;59323;50.874;7.028;2023-05-07T09:49:45;4.40;;;2.03;;
71503;SDS011;59323;50.874;7.028;2023-05-07T09:52:12;4.45;;;2.40;;
71503;SDS011;59323;50.874;7.028;2023-05-07T09:54:39;4.13;;;1.53;;
71503;SDS011;59323;50.874;7.028;2023-05-07T09:57:07;6.40;;;2.08;;
71503;SDS011;59323;50.874;7.028;2023-05-07T09:59:36;4.25;;;1.77;;
71503;SDS011;59323;50.874;7.028;2023-05-07T10:02:03;2.88;;;1.60;;
71503;SDS011;59323;50.874;7.028;2023-05-07T10:04:29;4.15;;;2.58;;
71503;SDS011;59323;50.874;7.028;2023-05-07T10:06:56;4.50;;;1.87;;
71503;SDS011;59323;50.874;7.028;2023-05-07T10:09:22;3.85;;;1.83;;
71503;SDS011;59323;50.874;7.028;2023-05-07T10:11:48;4.32;;;2.10;;
71503;SDS011;59323;50.874;7.028;2023-05-07T10:14:14;3.97;;;2.03;;
71503;SDS011;59323;50.874;7.028;2023-05-07T10:16:40;3.77;;;1.60;;
71503;SDS011;59323;50.874;7.028;2023-05-07T10:19:06;4.85;;;1.73;;
71503;SDS011;59323;50.874;7.028;2023-05-07T10:21:35;6.10;;;2.53;;
71503;SDS011;59323;50.874;7.028;2023-05-07T10:24:09;4.87;;;2.03;;
71503;SDS011;59323;50.874;7.028;2023-05-07T10:26:43;3.45;;;2.00;;
71503;SDS011;59323;50.874;7.028;2023-05-07T10:34:40;2.90;;;1.98;;
71503;SDS011;59323;50.874;7.028;2023-05-07T10:37:09;4.17;;;2.03;;
71503;SDS011;59323;50.874;7.028;2023-05-07T10:39:36;5.28;;;2.17;;
71503;SDS011;59323;50.874;7.028;2023-05-07T10:42:13;4.95;;;2.33;;
71503;SDS011;59323;50.874;7.028;2023-05-07T10:44:42;3.35;;;1.85;;
71503;SDS011;59323;50.874;7.028;2023-05-07T10:47:09;3.13;;;1.77;;
71503;SDS011;59323;50.874;7.028;2023-05-07T10:50:21;3.00;;;1.75;;
71503;SDS011;59323;50.874;7.028;2023-05-07T10:52:31;3.08;;;1.70;;
71503;SDS011;59323;50.874;7.028;2023-05-07T10:57:40;4.63;;;2.35;;
71503;SDS011;59323;50.874;7.028;2023-05-07T11:05:25;3.45;;;2.05;;
71503;SDS011;59323;50.874;7.028;2023-05-07T11:07:55;3.63;;;2.20;;
71503;SDS011;59323;50.874;7.028;2023-05-07T11:10:23;4.65;;;2.28;;
71503;SDS011;59323;50.874;7.028;2023-05-07T11:13:41;4.38;;;2.15;;
71503;SDS011;59323;50.874;7.028;2023-05-07T11:16:20;3.30;;;2.00;;
71503;SDS011;59323;50.874;7.028;2023-05-07T11:18:51;3.80;;;1.88;;
71503;SDS011;59323;50.874;7.028;2023-05-07T11:24:05;4.10;;;2.28;;
71503;SDS011;59323;50.874;7.028;2023-05-07T11:26:41;4.72;;;2.25;;
71503;SDS011;59323;50.874;7.028;2023-05-07T11:29:11;3.47;;;1.77;;
71503;SDS011;59323;50.874;7.028;2023-05-07T11:31:50;3.85;;;2.00;;
71503;SDS011;59323;50.874;7.028;2023-05-07T11:34:20;5.17;;;1.70;;
71503;SDS011;59323;50.874;7.028;2023-05-07T11:36:47;4.53;;;2.20;;
71503;SDS011;59323;50.874;7.028;2023-05-07T11:39:26;3.03;;;1.80;;
71503;SDS011;59323;50.874;7.028;2023-05-07T11:41:58;3.65;;;1.92;;
71503;SDS011;59323;50.874;7.028;2023-05-07T11:44:43;3.70;;;1.88;;
71503;SDS011;59323;50.874;7.028;2023-05-07T11:47:09;3.80;;;2.63;;
71503;SDS011;59323;50.874;7.028;2023-05-07T11:49:36;4.63;;;2.33;;
71503;SDS011;59323;50.874;7.028;2023-05-07T11:52:01;4.80;;;2.80;;
71503;SDS011;59323;50.874;7.028;2023-05-07T11:54:34;3.75;;;2.08;;
71503;SDS011;59323;50.874;7.028;2023-05-07T11:57:00;6.38;;;1.95;;
71503;SDS011;59323;50.874;7.028;2023-05-07T11:59:26;4.30;;;1.90;;
71503;SDS011;59323;50.874;7.028;2023-05-07T12:01:51;4.20;;;1.98;;
71503;SDS011;59323;50.874;7.028;2023-05-07T12:04:19;5.17;;;2.17;;
71503;SDS011;59323;50.874;7.028;2023-05-07T12:06:45;3.97;;;1.73;;
71503;SDS011;59323;50.874;7.028;2023-05-07T12:09:11;3.87;;;2.30;;
71503;SDS011;59323;50.874;7.028;2023-05-07T12:11:36;4.47;;;2.50;;
71503;SDS011;59323;50.874;7.028;2023-05-07T12:14:04;3.55;;;2.03;;
71503;SDS011;59323;50.874;7.028;2023-05-07T12:16:30;3.92;;;1.85;;
71503;SDS011;59323;50.874;7.028;2023-05-07T12:18:56;4.77;;;2.10;;
71503;SDS011;59323;50.874;7.028;2023-05-07T12:21:23;5.70;;;2.03;;
71503;SDS011;59323;50.874;7.028;2023-05-07T12:23:50;4.22;;;2.20;;
71503;SDS011;59323;50.874;7.028;2023-05-07T12:26:15;3.93;;;1.83;;
71503;SDS011;59323;50.874;7.028;2023-05-07T12:28:41;4.80;;;1.80;;
71503;SDS011;59323;50.874;7.028;2023-05-07T12:31:07;4.37;;;1.97;;
71503;SDS011;59323;50.874;7.028;2023-05-07T12:33:32;5.63;;;1.70;;
71503;SDS011;59323;50.874;7.028;2023-05-07T12:36:02;3.72;;;2.00;;
71503;SDS011;59323;50.874;7.028;2023-05-07T12:38:34;5.00;;;1.97;;
71503;SDS011;59323;50.874;7.028;2023-05-07T12:41:00;2.90;;;1.70;;
71503;SDS011;59323;50.874;7.028;2023-05-07T12:43:26;3.33;;;1.57;;
71503;SDS011;59323;50.874;7.028;2023-05-07T12:45:54;3.80;;;2.00;;
71503;SDS011;59323;50.874;7.028;2023-05-07T12:48:22;3.80;;;2.28;;
71503;SDS011;59323;50.874;7.028;2023-05-07T12:50:51;4.50;;;2.13;;
71503;SDS011;59323;50.874;7.028;2023-05-07T12:53:19;3.83;;;1.95;;
71503;SDS011;59323;50.874;7.028;2023-05-07T12:55:50;5.77;;;2.00;;
71503;SDS011;59323;50.874;7.028;2023-05-07T12:58:17;4.50;;;2.08;;
71503;SDS011;59323;50.874;7.028;2023-05-07T13:00:46;3.65;;;1.60;;
71503;SDS011;59323;50.874;7.028;2023-05-07T13:03:16;3.20;;;1.77;;
71503;SDS011;59323;50.874;7.028;2023-05-07T13:05:56;5.57;;;1.95;;
71503;SDS011;59323;50.874;7.028;2023-05-07T13:08:34;4.73;;;2.07;;
71503;SDS011;59323;50.874;7.028;2023-05-07T13:11:02;3.90;;;1.55;;
71503;SDS011;59323;50.874;7.028;2023-05-07T13:13:29;2.85;;;1.70;;
71503;SDS011;59323;50.874;7.028;2023-05-07T13:15:59;3.60;;;1.40;;
71503;SDS011;59323;50.874;7.028;2023-05-07T13:18:25;4.70;;;1.95;;
71503;SDS011;59323;50.874;7.028;2023-05-07T13:20:51;4.00;;;2.20;;
71503;SDS011;59323;50.874;7.028;2023-05-07T13:23:17;3.92;;;2.53;;
71503;SDS011;59323;50.874;7.028;2023-05-07T13:25:42;5.27;;;1.60;;
71503;SDS011;59323;50.874;7.028;2023-05-07T13:28:08;3.17;;;2.03;;
71503;SDS011;59323;50.874;7.028;2023-05-07T13:30:33;4.30;;;1.80;;
71503;SDS011;59323;50.874;7.028;2023-05-07T13:32:59;3.83;;;2.10;;
71503;SDS011;59323;50.874;7.028;2023-05-07T13:35:25;3.73;;;1.70;;
71503;SDS011;59323;50.874;7.028;2023-05-07T13:37:51;4.38;;;2.38;;
71503;SDS011;59323;50.874;7.028;2023-05-07T13:40:17;4.47;;;1.97;;
71503;SDS011;59323;50.874;7.028;2023-05-07T13:42:44;4.13;;;1.75;;
71503;SDS011;59323;50.874;7.028;2023-05-07T13:45:10;4.97;;;1.70;;
71503;SDS011;59323;50.874;7.028;2023-05-07T13:47:35;5.10;;;2.33;;
71503;SDS011;59323;50.874;7.028;2023-05-07T13:50:01;4.50;;;1.90;;
71503;SDS011;59323;50.874;7.028;2023-05-07T13:52:26;3.50;;;2.07;;
71503;SDS011;59323;50.874;7.028;2023-05-07T13:54:51;2.67;;;1.60;;
71503;SDS011;59323;50.874;7.028;2023-05-07T13:57:17;6.05;;;2.30;;
71503;SDS011;59323;50.874;7.028;2023-05-07T13:59:43;4.07;;;1.83;;
71503;SDS011;59323;50.874;7.028;2023-05-07T14:02:08;4.20;;;2.65;;
71503;SDS011;59323;50.874;7.028;2023-05-07T14:04:34;5.23;;;1.80;;
71503;SDS011;59323;50.874;7.028;2023-05-07T14:06:59;6.43;;;2.43;;
71503;SDS011;59323;50.874;7.028;2023-05-07T14:09:25;4.90;;;2.70;;
71503;SDS011;59323;50.874;7.028;2023-05-07T14:11:50;5.00;;;2.60;;
71503;SDS011;59323;50.874;7.028;2023-05-07T14:14:19;7.03;;;2.90;;
71503;SDS011;59323;50.874;7.028;2023-05-07T14:16:45;4.53;;;2.00;;
71503;SDS011;59323;50.874;7.028;2023-05-07T14:19:11;5.57;;;2.50;;
71503;SDS011;59323;50.874;7.028;2023-05-07T14:21:37;5.97;;;2.60;;
71503;SDS011;59323;50.874;7.028;2023-05-07T14:24:02;6.00;;;2.20;;
71503;SDS011;59323;50.874;7.028;2023-05-07T14:26:27;5.67;;;2.40;;
71503;SDS011;59323;50.874;7.028;2023-05-07T14:28:53;4.03;;;1.97;;
71503;SDS011;59323;50.874;7.028;2023-05-07T14:31:20;3.65;;;2.05;;
71503;SDS011;59323;50.874;7.028;2023-05-07T14:33:46;4.53;;;1.85;;
71503;SDS011;59323;50.874;7.028;2023-05-07T14:36:11;7.03;;;2.63;;
71503;SDS011;59323;50.874;7.028;2023-05-07T14:38:36;4.97;;;2.73;;
71503;SDS011;59323;50.874;7.028;2023-05-07T14:41:02;3.63;;;1.83;;
71503;SDS011;59323;50.874;7.028;2023-05-07T14:43:27;5.70;;;2.10;;
71503;SDS011;59323;50.874;7.028;2023-05-07T14:45:53;5.57;;;2.90;;
71503;SDS011;59323;50.874;7.028;2023-05-07T14:48:18;4.73;;;2.27;;
71503;SDS011;59323;50.874;7.028;2023-05-07T14:50:46;5.57;;;2.40;;
71503;SDS011;59323;50.874;7.028;2023-05-07T14:53:12;4.80;;;2.10;;
71503;SDS011;59323;50.874;7.028;2023-05-07T14:55:37;5.80;;;1.93;;
71503;SDS011;59323;50.874;7.028;2023-05-07T14:58:03;4.13;;;2.50;;
71503;SDS011;59323;50.874;7.028;2023-05-07T15:00:28;6.43;;;2.47;;